createdAt,value
2023-02-15T00:00:06.124Z,1.50
2023-02-15T00:02:07.941Z,1.50
2023-02-15T00:04:10.617Z,1.50
2023-02-15T00:06:12.367Z,1.50
2023-02-15T00:08:14.132Z,1.50
2023-02-15T00:10:15.939Z,1.50
2023-02-15T00:12:17.716Z,1.50
2023-02-15T00:14:21.285Z,1.50
2023-02-15T00:16:23.031Z,1.50
2023-02-15T00:18:24.810Z,1.40
2023-02-15T00:20:26.594Z,1.50
2023-02-15T00:22:28.334Z,1.40
2023-02-15T00:24:30.038Z,1.40
2023-02-15T00:26:31.907Z,1.30
2023-02-15T00:28:33.668Z,1.30
2023-02-15T00:30:35.399Z,1.40
2023-02-15T00:32:37.201Z,1.30
2023-02-15T00:34:39.921Z,1.30
2023-02-15T00:36:41.843Z,1.30
2023-02-15T00:38:43.893Z,1.30
2023-02-15T00:40:52.392Z,1.30
2023-02-15T00:42:54.485Z,1.30
2023-02-15T00:44:56.283Z,1.20
2023-02-15T00:46:58.102Z,1.20
2023-02-15T00:48:59.951Z,1.20
2023-02-15T00:51:02.337Z,1.20
2023-02-15T00:53:04.108Z,1.10
2023-02-15T00:55:06.056Z,1.20
2023-02-15T00:57:07.810Z,1.10
2023-02-15T00:59:09.945Z,1.10
2023-02-15T01:01:13.941Z,1.10
2023-02-15T01:03:16.780Z,1.20
2023-02-15T01:05:18.737Z,1.20
2023-02-15T01:07:20.481Z,1.20
2023-02-15T01:09:22.292Z,1.20
2023-02-15T01:11:24.458Z,1.20
2023-02-15T01:13:26.169Z,1.20
2023-02-15T01:15:27.927Z,1.20
2023-02-15T01:17:29.752Z,1.20
2023-02-15T01:19:31.470Z,1.30
2023-02-15T01:21:35.517Z,1.30
2023-02-15T01:23:38.228Z,1.30
2023-02-15T01:25:40.097Z,1.30
2023-02-15T01:27:41.876Z,1.30
2023-02-15T01:29:43.862Z,1.30
2023-02-15T01:31:45.701Z,1.30
2023-02-15T01:33:48.067Z,1.20
2023-02-15T01:35:49.777Z,1.30
2023-02-15T01:37:51.703Z,1.30
2023-02-15T01:39:54.607Z,1.30
2023-02-15T01:41:56.412Z,1.20
2023-02-15T01:43:59.613Z,1.20
2023-02-15T01:46:01.857Z,1.20
2023-02-15T01:48:04.051Z,1.20
2023-02-15T01:50:10.368Z,1.20
2023-02-15T01:52:15.220Z,1.20
2023-02-15T01:54:25.560Z,1.20
2023-02-15T01:56:34.750Z,1.20
2023-02-15T01:58:37.561Z,1.20
2023-02-15T02:00:39.282Z,1.20
2023-02-15T02:02:42.875Z,1.20
2023-02-15T02:04:44.669Z,1.10
2023-02-15T02:06:47.796Z,1.10
2023-02-15T02:08:49.644Z,1.10
2023-02-15T02:10:51.425Z,1.10
2023-02-15T02:12:55.330Z,1.10
2023-02-15T02:14:57.432Z,1.10
2023-02-15T02:17:04.193Z,1.10
2023-02-15T02:19:24.798Z,1.10
2023-02-15T02:21:44.975Z,1.20
2023-02-15T02:23:49.787Z,1.10
2023-02-15T02:25:54.538Z,1.10
2023-02-15T02:28:05.292Z,1.10
2023-02-15T02:30:25.880Z,1.10
2023-02-15T02:32:46.521Z,1.10
2023-02-15T02:34:51.722Z,1.10
2023-02-15T02:36:59.617Z,1.00
2023-02-15T02:39:21.585Z,1.10
2023-02-15T02:41:23.306Z,1.10
2023-02-15T02:43:43.771Z,1.10
2023-02-15T02:45:51.251Z,1.10
2023-02-15T02:47:59.799Z,1.10
2023-02-15T02:50:03.746Z,1.10
2023-02-15T02:52:07.619Z,1.10
2023-02-15T02:54:09.566Z,1.10
2023-02-15T02:56:18.460Z,1.10
2023-02-15T02:58:26.184Z,1.10
2023-02-15T03:00:31.316Z,1.10
2023-02-15T03:02:35.730Z,1.10
2023-02-15T03:04:39.096Z,1.10
2023-02-15T03:06:49.497Z,1.10
2023-02-15T03:08:55.200Z,1.10
2023-02-15T03:10:58.256Z,1.10
2023-02-15T03:13:00.218Z,1.10
2023-02-15T03:15:11.449Z,1.10
2023-02-15T03:17:14.198Z,1.10
2023-02-15T03:19:18.594Z,1.10
2023-02-15T03:21:23.317Z,1.10
2023-02-15T03:23:26.472Z,1.10
2023-02-15T03:25:31.624Z,1.10
2023-02-15T03:27:37.161Z,1.10
2023-02-15T03:29:39.074Z,1.10
2023-02-15T03:31:42.300Z,1.10
2023-02-15T03:33:51.623Z,1.10
2023-02-15T03:35:59.456Z,1.10
2023-02-15T03:38:02.673Z,1.10
2023-02-15T03:40:37.961Z,1.10
2023-02-15T03:42:40.410Z,1.10
2023-02-15T03:45:01.016Z,1.10
2023-02-15T03:47:07.605Z,1.10
2023-02-15T03:49:18.542Z,1.10
2023-02-15T03:51:35.290Z,1.10
2023-02-15T03:53:37.489Z,1.10
2023-02-15T03:55:39.329Z,1.10
2023-02-15T03:57:59.413Z,1.10
2023-02-15T04:00:21.342Z,1.10
2023-02-15T04:02:25.308Z,1.10
2023-02-15T04:04:33.360Z,1.10
2023-02-15T04:06:35.120Z,1.10
2023-02-15T04:08:55.488Z,1.10
2023-02-15T04:10:57.351Z,1.10
2023-02-15T04:12:59.099Z,1.10
2023-02-15T04:15:19.530Z,1.10
2023-02-15T04:17:21.402Z,1.10
2023-02-15T04:19:41.855Z,1.10
2023-02-15T04:22:02.242Z,1.10
2023-02-15T04:24:22.481Z,1.10
2023-02-15T04:26:24.295Z,1.10
2023-02-15T04:28:26.041Z,1.10
2023-02-15T04:30:28.004Z,1.10
2023-02-15T04:32:29.791Z,1.10
2023-02-15T04:34:31.721Z,1.10
2023-02-15T04:36:33.492Z,1.10
2023-02-15T04:38:35.287Z,1.10
2023-02-15T04:40:37.058Z,1.10
2023-02-15T04:42:38.881Z,1.10
2023-02-15T04:44:41.072Z,1.10
2023-02-15T04:46:42.802Z,1.10
2023-02-15T04:48:44.901Z,1.10
2023-02-15T04:50:46.661Z,1.10
2023-02-15T04:52:48.385Z,1.10
2023-02-15T04:54:50.144Z,1.10
2023-02-15T04:56:51.992Z,1.10
2023-02-15T04:58:53.701Z,1.20
2023-02-15T05:00:58.638Z,1.10
2023-02-15T05:03:00.483Z,1.10
2023-02-15T05:05:02.223Z,1.10
2023-02-15T05:07:04.012Z,1.10
2023-02-15T05:09:05.818Z,1.20
2023-02-15T05:11:07.535Z,1.20
2023-02-15T05:13:09.340Z,1.10
2023-02-15T05:15:11.133Z,1.10
2023-02-15T05:17:13.017Z,1.10
2023-02-15T05:19:14.764Z,1.10
2023-02-15T05:21:17.587Z,1.10
2023-02-15T05:23:19.367Z,1.10
2023-02-15T05:25:40.045Z,1.10
2023-02-15T05:28:00.530Z,1.10
2023-02-15T05:30:02.644Z,1.10
2023-02-15T05:32:05.417Z,1.10
2023-02-15T05:34:07.410Z,1.10
2023-02-15T05:36:09.600Z,1.10
2023-02-15T05:38:11.412Z,1.10
2023-02-15T05:40:13.270Z,1.00
2023-02-15T05:42:15.062Z,1.10
2023-02-15T05:44:16.813Z,1.10
2023-02-15T05:46:18.626Z,1.10
2023-02-15T05:48:20.873Z,1.10
2023-02-15T05:50:22.595Z,1.10
2023-02-15T05:52:24.361Z,1.10
2023-02-15T05:54:26.100Z,1.10
2023-02-15T05:56:27.824Z,1.10
2023-02-15T05:58:31.110Z,1.10
2023-02-15T06:00:33.078Z,1.10
2023-02-15T06:02:38.053Z,1.20
2023-02-15T06:04:39.816Z,1.20
2023-02-15T06:06:41.555Z,1.10
2023-02-15T06:08:43.355Z,1.20
2023-02-15T06:10:46.845Z,1.20
2023-02-15T06:12:48.581Z,1.20
2023-02-15T06:14:50.303Z,1.20
2023-02-15T06:16:52.409Z,1.20
2023-02-15T06:18:54.203Z,1.20
2023-02-15T06:20:55.982Z,1.20
2023-02-15T06:22:57.753Z,1.20
2023-02-15T06:24:59.477Z,1.20
2023-02-15T06:27:01.430Z,1.20
2023-02-15T06:29:03.513Z,1.20
2023-02-15T06:31:05.391Z,1.20
2023-02-15T06:33:07.139Z,1.20
2023-02-15T06:35:08.905Z,1.20
2023-02-15T06:37:10.802Z,1.20
2023-02-15T06:39:12.510Z,1.20
2023-02-15T06:41:14.272Z,1.30
2023-02-15T06:43:16.017Z,1.40
2023-02-15T06:45:17.778Z,1.30
2023-02-15T06:47:19.532Z,1.30
2023-02-15T06:49:21.328Z,1.30
2023-02-15T06:51:23.047Z,1.30
2023-02-15T06:53:24.834Z,1.30
2023-02-15T06:55:26.692Z,1.30
2023-02-15T06:57:28.423Z,1.30
2023-02-15T06:59:30.329Z,1.30
2023-02-15T07:01:32.077Z,1.30
2023-02-15T07:03:34.387Z,1.30
2023-02-15T07:05:36.222Z,1.30
2023-02-15T07:07:37.934Z,1.30
2023-02-15T07:09:40.017Z,1.30
2023-02-15T07:12:00.269Z,1.30
2023-02-15T07:14:02.004Z,1.40
2023-02-15T07:16:04.249Z,1.40
2023-02-15T07:18:06.320Z,1.40
2023-02-15T07:20:09.665Z,1.40
2023-02-15T07:22:11.424Z,1.40
2023-02-15T07:24:13.295Z,1.40
2023-02-15T07:26:14.995Z,1.40
2023-02-15T07:28:17.216Z,1.40
2023-02-15T07:30:19.048Z,1.30
2023-02-15T07:32:20.847Z,1.40
2023-02-15T07:34:22.719Z,1.50
2023-02-15T07:36:24.490Z,1.40
2023-02-15T07:38:27.188Z,1.40
2023-02-15T07:40:28.961Z,1.50
2023-02-15T07:42:31.708Z,1.50
2023-02-15T07:44:33.450Z,1.40
2023-02-15T07:46:35.262Z,1.40
2023-02-15T07:48:37.367Z,1.40
2023-02-15T07:50:39.127Z,1.40
2023-02-15T07:52:40.902Z,1.40
2023-02-15T07:54:42.698Z,1.50
2023-02-15T07:56:44.479Z,1.50
2023-02-15T07:58:52.032Z,1.50
2023-02-15T08:00:59.252Z,1.50
2023-02-15T08:03:16.265Z,1.60
2023-02-15T08:05:19.310Z,1.60
2023-02-15T08:07:21.117Z,1.60
2023-02-15T08:09:23.129Z,1.60
2023-02-15T08:11:34.787Z,1.80
2023-02-15T08:13:54.495Z,1.90
2023-02-15T08:15:56.333Z,1.90
2023-02-15T08:17:58.073Z,1.90
2023-02-15T08:19:59.795Z,2.00
2023-02-15T08:22:03.197Z,1.70
2023-02-15T08:24:05.558Z,1.70
2023-02-15T08:26:07.355Z,1.70
2023-02-15T08:28:09.130Z,1.70
2023-02-15T08:30:11.232Z,1.70
2023-02-15T08:32:13.406Z,1.80
2023-02-15T08:34:16.345Z,1.70
2023-02-15T08:36:19.679Z,1.80
2023-02-15T08:38:21.739Z,1.80
2023-02-15T08:40:23.505Z,1.70
2023-02-15T08:42:25.212Z,1.80
2023-02-15T08:44:27.092Z,2.00
2023-02-15T08:46:29.968Z,1.80
2023-02-15T08:48:31.747Z,1.90
2023-02-15T08:50:33.535Z,2.00
2023-02-15T08:52:35.342Z,2.10
2023-02-15T08:54:37.186Z,2.20
2023-02-15T08:56:39.983Z,2.10
2023-02-15T08:58:41.904Z,1.90
2023-02-15T09:00:43.710Z,1.90
2023-02-15T09:02:45.547Z,2.00
2023-02-15T09:04:47.303Z,2.00
2023-02-15T09:06:49.873Z,2.20
2023-02-15T09:08:51.847Z,2.10
2023-02-15T09:10:53.784Z,1.90
2023-02-15T09:12:55.543Z,1.90
2023-02-15T09:14:57.265Z,1.90
2023-02-15T09:16:59.063Z,1.90
2023-02-15T09:19:05.662Z,1.90
2023-02-15T09:21:14.364Z,1.90
2023-02-15T09:23:26.829Z,2.00
2023-02-15T09:25:29.146Z,2.10
2023-02-15T09:27:31.009Z,2.30
2023-02-15T09:29:32.803Z,2.30
2023-02-15T09:31:38.271Z,2.30
2023-02-15T09:33:41.142Z,2.30
2023-02-15T09:35:42.903Z,2.30
2023-02-15T09:37:44.667Z,2.40
2023-02-15T09:39:48.305Z,2.30
2023-02-15T09:41:50.838Z,2.20
2023-02-15T09:44:11.089Z,2.10
2023-02-15T09:46:33.162Z,1.80
2023-02-15T09:48:37.644Z,1.60
2023-02-15T09:50:48.174Z,1.60
2023-02-15T09:53:22.416Z,1.50
2023-02-15T09:55:24.204Z,1.70
2023-02-15T09:57:34.710Z,1.90
2023-02-15T09:59:45.924Z,1.90
2023-02-15T10:01:56.383Z,1.90
2023-02-15T10:03:58.111Z,1.90
2023-02-15T10:05:59.899Z,1.80
2023-02-15T10:08:10.486Z,1.80
2023-02-15T10:10:12.564Z,1.80
2023-02-15T10:12:15.083Z,1.90
2023-02-15T10:14:23.347Z,1.80
2023-02-15T10:16:36.359Z,1.60
2023-02-15T10:18:42.909Z,1.80
2023-02-15T10:20:44.583Z,1.70
2023-02-15T10:22:46.281Z,1.70
2023-02-15T10:25:03.207Z,1.90
2023-02-15T10:27:17.068Z,2.10
2023-02-15T10:29:38.134Z,2.20
2023-02-15T10:31:39.988Z,2.10
2023-02-15T10:33:42.846Z,2.10
2023-02-15T10:35:44.685Z,2.10
2023-02-15T10:38:03.571Z,2.30
2023-02-15T10:40:05.466Z,2.30
2023-02-15T10:42:21.630Z,2.40
2023-02-15T10:44:35.575Z,2.60
2023-02-15T10:46:40.320Z,2.40
2023-02-15T10:49:00.463Z,2.60
2023-02-15T10:51:04.152Z,2.40
2023-02-15T10:53:06.024Z,2.40
2023-02-15T10:55:07.712Z,2.40
2023-02-15T10:57:12.613Z,2.40
2023-02-15T10:59:17.456Z,2.40
2023-02-15T11:01:37.991Z,2.60
2023-02-15T11:03:42.929Z,2.40
2023-02-15T11:05:50.205Z,2.40
2023-02-15T11:07:53.998Z,2.20
2023-02-15T11:10:17.307Z,2.20
2023-02-15T11:12:25.140Z,2.10
2023-02-15T11:14:41.988Z,2.20
2023-02-15T11:16:50.089Z,2.50
2023-02-15T11:19:02.345Z,2.60
2023-02-15T11:21:22.897Z,2.80
2023-02-15T11:23:25.410Z,3.00
2023-02-15T11:25:31.133Z,2.80
2023-02-15T11:27:35.788Z,2.80
2023-02-15T11:29:59.774Z,2.70
2023-02-15T11:32:21.926Z,2.70
2023-02-15T11:34:30.212Z,2.50
2023-02-15T11:36:38.350Z,2.30
2023-02-15T11:38:44.356Z,2.30
2023-02-15T11:40:50.537Z,2.40
2023-02-15T11:42:54.707Z,2.40
2023-02-15T11:45:08.407Z,2.50
2023-02-15T11:47:12.973Z,2.70
2023-02-15T11:49:24.521Z,2.80
2023-02-15T11:51:28.881Z,2.60
2023-02-15T11:53:33.802Z,2.50
2023-02-15T11:55:36.222Z,2.60
2023-02-15T11:57:41.471Z,2.60
2023-02-15T11:59:46.372Z,2.40
2023-02-15T12:01:48.257Z,2.40
2023-02-15T12:03:51.730Z,2.40
2023-02-15T12:06:03.193Z,2.30
2023-02-15T12:08:10.571Z,2.30
2023-02-15T12:10:15.124Z,2.50
2023-02-15T12:12:25.612Z,2.40
2023-02-15T12:14:27.383Z,2.50
2023-02-15T12:16:30.186Z,2.70
2023-02-15T12:18:31.964Z,3.00
2023-02-15T12:20:34.186Z,3.10
2023-02-15T12:22:37.966Z,3.00
2023-02-15T12:24:45.861Z,2.80
2023-02-15T12:26:57.015Z,2.70
2023-02-15T12:29:03.192Z,2.50
2023-02-15T12:31:09.525Z,2.30
2023-02-15T12:33:28.626Z,2.30
2023-02-15T12:35:30.435Z,2.30
2023-02-15T12:37:35.722Z,2.30
2023-02-15T12:39:37.506Z,2.40
2023-02-15T12:41:44.545Z,2.50
2023-02-15T12:43:46.364Z,2.60
2023-02-15T12:45:48.109Z,2.70
2023-02-15T12:48:08.600Z,2.80
2023-02-15T12:50:22.366Z,2.90
2023-02-15T12:52:25.467Z,2.80
2023-02-15T12:54:30.637Z,2.60
2023-02-15T12:56:32.467Z,2.40
2023-02-15T12:58:34.160Z,2.40
2023-02-15T13:00:36.580Z,2.60
2023-02-15T13:02:47.239Z,2.60
2023-02-15T13:04:50.409Z,2.80
2023-02-15T13:06:53.393Z,2.90
2023-02-15T13:08:57.235Z,3.00
2023-02-15T13:10:58.933Z,2.90
2023-02-15T13:13:03.776Z,2.60
2023-02-15T13:15:24.527Z,2.40
2023-02-15T13:17:30.599Z,2.30
2023-02-15T13:19:58.741Z,2.30
2023-02-15T13:22:01.252Z,2.10
2023-02-15T13:24:07.443Z,2.30
2023-02-15T13:26:12.064Z,2.50
2023-02-15T13:28:15.681Z,2.50
2023-02-15T13:30:19.626Z,2.50
2023-02-15T13:32:21.429Z,2.70
2023-02-15T13:34:37.431Z,2.50
2023-02-15T13:36:48.953Z,2.60
2023-02-15T13:38:56.862Z,2.60
2023-02-15T13:41:05.928Z,2.40
2023-02-15T13:43:27.986Z,2.30
2023-02-15T13:45:35.856Z,2.20
2023-02-15T13:47:43.514Z,2.30
2023-02-15T13:49:57.345Z,2.30
2023-02-15T13:52:22.089Z,2.50
2023-02-15T13:54:26.647Z,2.60
2023-02-15T13:56:46.912Z,2.50
2023-02-15T13:58:54.223Z,2.50
2023-02-15T14:01:13.652Z,2.60
2023-02-15T14:03:30.662Z,2.50
2023-02-15T14:05:41.105Z,2.60
2023-02-15T14:07:54.826Z,2.50
2023-02-15T14:10:18.726Z,2.40
2023-02-15T14:12:27.814Z,2.30
2023-02-15T14:14:41.630Z,2.30
2023-02-15T14:17:05.458Z,2.20
2023-02-15T14:19:16.704Z,2.20
2023-02-15T14:21:27.735Z,2.10
2023-02-15T14:23:32.796Z,2.00
2023-02-15T14:25:47.693Z,2.00
2023-02-15T14:27:51.094Z,2.00
2023-02-15T14:30:04.923Z,1.90
2023-02-15T14:32:12.979Z,1.90
2023-02-15T14:34:38.298Z,2.00
2023-02-15T14:36:40.154Z,1.90
2023-02-15T14:38:52.688Z,1.90
2023-02-15T14:41:12.931Z,1.80
2023-02-15T14:43:44.121Z,1.80
2023-02-15T14:46:15.526Z,1.70
2023-02-15T14:48:21.636Z,1.70
2023-02-15T14:50:33.321Z,1.60
2023-02-15T14:52:54.962Z,1.60
2023-02-15T14:54:58.062Z,1.60
2023-02-15T14:57:02.531Z,1.60
2023-02-15T14:59:18.457Z,1.50
2023-02-15T15:01:36.833Z,1.50
2023-02-15T15:03:44.701Z,1.40
2023-02-15T15:05:50.759Z,1.40
2023-02-15T15:07:54.832Z,1.30
2023-02-15T15:10:01.133Z,1.20
2023-02-15T15:12:21.296Z,1.30
2023-02-15T15:14:35.170Z,1.20
2023-02-15T15:16:36.996Z,1.10
2023-02-15T15:18:44.720Z,1.10
2023-02-15T15:20:51.777Z,1.00
2023-02-15T15:23:12.682Z,1.00
2023-02-15T15:25:33.492Z,0.80
2023-02-15T15:27:51.369Z,0.90
2023-02-15T15:29:53.209Z,0.80
2023-02-15T15:31:57.444Z,0.70
2023-02-15T15:34:18.647Z,0.70
2023-02-15T15:36:20.452Z,0.70
2023-02-15T15:38:40.887Z,0.60
2023-02-15T15:41:01.536Z,0.60
2023-02-15T15:43:21.979Z,0.40
2023-02-15T15:45:26.938Z,0.40
2023-02-15T15:47:53.337Z,0.40
2023-02-15T15:49:59.400Z,0.50
2023-02-15T15:52:20.878Z,0.50
2023-02-15T15:54:24.277Z,0.40
2023-02-15T15:56:29.122Z,0.40
2023-02-15T15:58:32.641Z,0.30
2023-02-15T16:00:36.808Z,0.30
2023-02-15T16:02:50.304Z,0.20
2023-02-15T16:04:52.078Z,0.20
2023-02-15T16:06:54.155Z,0.20
2023-02-15T16:08:56.139Z,0.20
2023-02-15T16:10:58.973Z,0.10
2023-02-15T16:13:01.339Z,0.10
2023-02-15T16:15:06.153Z,0.00
2023-02-15T16:17:15.006Z,0.00
2023-02-15T16:19:19.592Z,0.10
2023-02-15T16:21:23.790Z,0.00
2023-02-15T16:23:37.701Z,-0.10
2023-02-15T16:25:55.788Z,-0.20
2023-02-15T16:27:57.573Z,-0.10
2023-02-15T16:29:59.398Z,-0.20
2023-02-15T16:32:20.781Z,-0.20
2023-02-15T16:34:22.646Z,-0.20
2023-02-15T16:36:28.576Z,-0.30
2023-02-15T16:38:45.559Z,-0.30
2023-02-15T16:40:49.347Z,-0.20
2023-02-15T16:42:52.662Z,-0.20
2023-02-15T16:44:57.475Z,-0.30
2023-02-15T16:47:00.343Z,-0.20
2023-02-15T16:49:04.190Z,-0.30
2023-02-15T16:51:06.309Z,-0.30
2023-02-15T16:53:15.210Z,-0.40
2023-02-15T16:55:22.597Z,-0.40
2023-02-15T16:57:29.690Z,-0.40
2023-02-15T16:59:34.490Z,-0.40
2023-02-15T17:01:36.406Z,-0.50
2023-02-15T17:03:38.282Z,-0.40
2023-02-15T17:05:59.789Z,-0.60
2023-02-15T17:08:11.986Z,-0.50
2023-02-15T17:10:34.371Z,-0.30
2023-02-15T17:12:56.303Z,-0.50
2023-02-15T17:14:58.070Z,-0.40
2023-02-15T17:17:13.024Z,-0.40
2023-02-15T17:19:17.327Z,-0.40
2023-02-15T17:21:25.410Z,-0.40
2023-02-15T17:23:27.563Z,-0.40
2023-02-15T17:25:40.094Z,-0.40
2023-02-15T17:27:41.893Z,-0.50
2023-02-15T17:29:48.582Z,-0.50
2023-02-15T17:31:51.913Z,-0.40
2023-02-15T17:33:55.851Z,-0.40
2023-02-15T17:36:29.558Z,-0.40
2023-02-15T17:38:31.484Z,-0.30
2023-02-15T17:40:36.718Z,-0.50
2023-02-15T17:42:38.545Z,-0.40
2023-02-15T17:44:40.309Z,-0.50
2023-02-15T17:46:42.618Z,-0.50
2023-02-15T17:48:44.719Z,-0.60
2023-02-15T17:50:46.716Z,-0.60
2023-02-15T17:52:48.659Z,-0.60
2023-02-15T17:55:09.257Z,-0.60
2023-02-15T17:57:14.434Z,-0.50
2023-02-15T17:59:16.319Z,-0.50
2023-02-15T18:01:38.337Z,-0.50
2023-02-15T18:03:58.818Z,-0.60
2023-02-15T18:06:19.115Z,-0.50
2023-02-15T18:08:41.822Z,-0.50
2023-02-15T18:11:02.377Z,-0.60
2023-02-15T18:13:05.161Z,-0.50
2023-02-15T18:15:11.447Z,-0.40
2023-02-15T18:17:16.115Z,-0.50
2023-02-15T18:19:27.594Z,-0.50
2023-02-15T18:21:30.159Z,-0.50
2023-02-15T18:23:32.028Z,-0.60
2023-02-15T18:25:34.941Z,-0.70
2023-02-15T18:27:36.784Z,-0.70
2023-02-15T18:29:38.614Z,-0.70
2023-02-15T18:31:41.165Z,-0.70
2023-02-15T18:34:09.886Z,-0.80
2023-02-15T18:36:17.566Z,-0.80
2023-02-15T18:38:19.573Z,-0.70
2023-02-15T18:40:23.047Z,-0.80
2023-02-15T18:42:28.818Z,-0.70
2023-02-15T18:44:30.676Z,-0.80
2023-02-15T18:46:32.673Z,-0.80
2023-02-15T18:48:34.557Z,-0.90
2023-02-15T18:50:37.129Z,-0.90
2023-02-15T18:52:39.930Z,-0.90
2023-02-15T18:54:42.284Z,-0.90
2023-02-15T18:56:44.150Z,-0.90
2023-02-15T18:58:49.337Z,-0.90
2023-02-15T19:00:51.505Z,-0.90
2023-02-15T19:02:54.478Z,-0.90
2023-02-15T19:04:56.209Z,-1.00
2023-02-15T19:06:57.961Z,-1.00
2023-02-15T19:08:59.729Z,-1.00
2023-02-15T19:11:01.898Z,-1.10
2023-02-15T19:13:03.987Z,-1.10
2023-02-15T19:15:06.026Z,-1.30
2023-02-15T19:17:14.603Z,-1.40
2023-02-15T19:19:16.471Z,-1.40
2023-02-15T19:21:18.775Z,-1.40
2023-02-15T19:23:22.499Z,-1.40
2023-02-15T19:25:26.109Z,-1.30
2023-02-15T19:27:30.123Z,-1.40
2023-02-15T19:29:31.872Z,-1.30
2023-02-15T19:31:35.150Z,-1.30
2023-02-15T19:33:37.301Z,-1.30
2023-02-15T19:35:39.684Z,-1.30
2023-02-15T19:37:42.647Z,-1.40
2023-02-15T19:39:44.669Z,-1.50
2023-02-15T19:41:46.656Z,-1.50
2023-02-15T19:43:53.488Z,-1.60
2023-02-15T19:45:55.283Z,-1.60
2023-02-15T19:47:57.136Z,-1.50
2023-02-15T19:50:03.592Z,-1.50
2023-02-15T19:52:06.157Z,-1.50
2023-02-15T19:54:27.415Z,-1.50
2023-02-15T19:56:29.207Z,-1.60
2023-02-15T19:58:31.234Z,-1.60
2023-02-15T20:00:34.137Z,-1.60
2023-02-15T20:02:36.130Z,-1.60
2023-02-15T20:04:38.003Z,-1.70
2023-02-15T20:06:40.030Z,-1.70
2023-02-15T20:08:44.961Z,-1.80
2023-02-15T20:10:47.028Z,-1.90
2023-02-15T20:12:49.585Z,-1.90
2023-02-15T20:14:52.028Z,-1.90
2023-02-15T20:16:54.230Z,-1.90
2023-02-15T20:18:56.226Z,-1.80
2023-02-15T20:20:58.336Z,-1.80
2023-02-15T20:23:00.131Z,-1.80
2023-02-15T20:25:02.362Z,-1.80
2023-02-15T20:27:04.425Z,-1.70
2023-02-15T20:29:09.250Z,-1.80
2023-02-15T20:31:20.814Z,-1.60
2023-02-15T20:33:22.779Z,-1.70
2023-02-15T20:35:25.500Z,-1.70
2023-02-15T20:37:29.707Z,-1.50
2023-02-15T20:39:33.040Z,-1.40
2023-02-15T20:41:38.995Z,-1.50
2023-02-15T20:43:40.966Z,-1.40
2023-02-15T20:45:42.957Z,-1.40
2023-02-15T20:47:48.728Z,-1.40
2023-02-15T20:49:50.988Z,-1.40
2023-02-15T20:51:53.512Z,-1.40
2023-02-15T20:53:55.495Z,-1.50
2023-02-15T20:55:57.460Z,-1.50
2023-02-15T20:57:59.670Z,-1.60
2023-02-15T21:00:01.889Z,-1.80
2023-02-15T21:02:22.954Z,-1.70
2023-02-15T21:04:32.232Z,-1.80
2023-02-15T21:06:33.955Z,-1.70
2023-02-15T21:08:35.855Z,-1.80
2023-02-15T21:10:37.810Z,-1.80
2023-02-15T21:12:39.878Z,-1.80
2023-02-15T21:14:43.388Z,-1.90
2023-02-15T21:16:45.965Z,-1.80
2023-02-15T21:18:47.959Z,-1.80
2023-02-15T21:20:51.733Z,-1.80
2023-02-15T21:22:54.334Z,-1.70
2023-02-15T21:24:56.072Z,-1.80
2023-02-15T21:27:02.421Z,-1.90
2023-02-15T21:29:04.278Z,-2.00
2023-02-15T21:31:06.623Z,-2.00
2023-02-15T21:33:08.853Z,-2.10
2023-02-15T21:35:14.483Z,-2.10
2023-02-15T21:37:31.741Z,-2.10
2023-02-15T21:39:35.646Z,-2.20
2023-02-15T21:41:55.984Z,-2.10
2023-02-15T21:44:23.699Z,-2.30
2023-02-15T21:46:45.352Z,-2.30
2023-02-15T21:48:47.233Z,-2.30
2023-02-15T21:51:10.412Z,-2.30
2023-02-15T21:53:18.593Z,-2.30
2023-02-15T21:55:20.434Z,-2.40
2023-02-15T21:57:22.559Z,-2.40
2023-02-15T21:59:26.514Z,-2.40
2023-02-15T22:01:28.636Z,-2.40
2023-02-15T22:03:34.163Z,-2.50
2023-02-15T22:05:36.033Z,-2.50
2023-02-15T22:07:37.996Z,-2.50
2023-02-15T22:09:39.724Z,-2.60
2023-02-15T22:11:41.654Z,-2.50
2023-02-15T22:13:43.837Z,-2.50
2023-02-15T22:15:47.295Z,-2.50
2023-02-15T22:17:50.637Z,-2.40
2023-02-15T22:19:52.702Z,-2.50
2023-02-15T22:21:55.732Z,-2.50
2023-02-15T22:23:57.463Z,-2.50
2023-02-15T22:26:03.002Z,-2.50
2023-02-15T22:28:05.100Z,-2.50
2023-02-15T22:30:17.346Z,-2.50
2023-02-15T22:32:24.561Z,-2.40
2023-02-15T22:34:27.724Z,-2.40
2023-02-15T22:36:30.390Z,-2.40
2023-02-15T22:38:32.257Z,-2.40
2023-02-15T22:40:34.189Z,-2.40
2023-02-15T22:42:36.043Z,-2.50
2023-02-15T22:44:37.915Z,-2.50
2023-02-15T22:46:40.546Z,-2.50
2023-02-15T22:48:43.015Z,-2.60
2023-02-15T22:50:45.233Z,-2.60
2023-02-15T22:52:47.051Z,-2.60
2023-02-15T22:54:48.883Z,-2.70
2023-02-15T22:56:52.160Z,-2.60
2023-02-15T22:58:58.450Z,-2.70
2023-02-15T23:01:01.298Z,-2.70
2023-02-15T23:03:10.545Z,-2.70
2023-02-15T23:05:23.230Z,-2.70
2023-02-15T23:07:25.125Z,-2.80
2023-02-15T23:09:26.980Z,-2.80
2023-02-15T23:11:28.957Z,-2.80
2023-02-15T23:13:32.239Z,-2.80
2023-02-15T23:15:34.608Z,-2.70
2023-02-15T23:17:36.339Z,-2.80
2023-02-15T23:19:38.078Z,-2.90
2023-02-15T23:21:39.897Z,-2.90
2023-02-15T23:23:45.941Z,-2.90
2023-02-15T23:25:47.684Z,-2.90
2023-02-15T23:27:58.522Z,-2.90
2023-02-15T23:30:01.772Z,-2.90
2023-02-15T23:32:03.617Z,-3.00
2023-02-15T23:34:13.819Z,-3.00
2023-02-15T23:36:21.551Z,-3.10
2023-02-15T23:38:30.340Z,-3.10
2023-02-15T23:40:50.682Z,-3.10
2023-02-15T23:42:52.448Z,-3.10
2023-02-15T23:44:54.377Z,-3.10
2023-02-15T23:46:56.698Z,-3.00
2023-02-15T23:48:58.458Z,-3.10
2023-02-15T23:51:00.320Z,-3.10
2023-02-15T23:53:02.310Z,-3.10
2023-02-15T23:55:04.105Z,-3.10
2023-02-15T23:57:05.830Z,-3.20
2023-02-15T23:59:07.797Z,-3.10
